Drake, Kentucky
Current Conditions -  °F | °C
As of 2:53 PM on Friday 31 Oct 2014 (Local Time) from KBWG Reporting Station
Overcast Overcast  
Wind Chill: 35°   Ceiling: 3200
Heat Index: 43°   Visibility: 10mi
Dew Point: 33°   Wind: 16mph
Humidity: 68%   Direction: 320°NW
Pressure: 30.05"   Gusts: 26mph
Location:  36.84°N, 86.41°W
Report Text: KBWG 311953Z AUTO 32014G23KT 10SM FEW014 BKN032 OVC043 06/01 A3005 RMK AO2 RAB18E31 SLP177 P0001 T00610006
Loading
Personal Weather Stations






























Interactive Weather Map
Tropical Storm Tracking
New forecast layout! Learn more

10-Day Weather Forecast

Advertisements
Track Severe Weather on mobile